sensor_id;sensor_type;location;lat;lon;timestamp;temperature;humidity
42683;DHT22;28293;50.930;3.464;2023-06-22T00:00:55;20.10;67.80
42683;DHT22;28293;50.930;3.464;2023-06-22T00:03:23;20.00;67.90
42683;DHT22;28293;50.930;3.464;2023-06-22T00:05:49;20.00;68.60
42683;DHT22;28293;50.930;3.464;2023-06-22T00:08:16;20.00;68.80
42683;DHT22;28293;50.930;3.464;2023-06-22T00:10:42;20.00;69.30
42683;DHT22;28293;50.930;3.464;2023-06-22T00:13:09;20.00;69.00
42683;DHT22;28293;50.930;3.464;2023-06-22T00:15:35;20.00;69.10
42683;DHT22;28293;50.930;3.464;2023-06-22T00:18:01;20.00;69.20
42683;DHT22;28293;50.930;3.464;2023-06-22T00:20:28;20.00;68.90
42683;DHT22;28293;50.930;3.464;2023-06-22T00:22:58;19.90;69.50
42683;DHT22;28293;50.930;3.464;2023-06-22T00:25:24;19.80;69.20
42683;DHT22;28293;50.930;3.464;2023-06-22T00:27:50;19.70;69.90
42683;DHT22;28293;50.930;3.464;2023-06-22T00:30:16;19.70;70.20
42683;DHT22;28293;50.930;3.464;2023-06-22T00:32:43;19.60;70.10
42683;DHT22;28293;50.930;3.464;2023-06-22T00:35:08;19.60;70.70
42683;DHT22;28293;50.930;3.464;2023-06-22T00:37:38;19.60;70.60
42683;DHT22;28293;50.930;3.464;2023-06-22T00:40:06;19.60;71.10
42683;DHT22;28293;50.930;3.464;2023-06-22T00:42:33;19.60;71.20
42683;DHT22;28293;50.930;3.464;2023-06-22T00:44:59;19.60;71.20
42683;DHT22;28293;50.930;3.464;2023-06-22T00:47:24;19.60;71.40
42683;DHT22;28293;50.930;3.464;2023-06-22T00:49:50;19.60;71.60
42683;DHT22;28293;50.930;3.464;2023-06-22T00:52:22;19.60;71.60
42683;DHT22;28293;50.930;3.464;2023-06-22T00:54:52;19.60;71.70
42683;DHT22;28293;50.930;3.464;2023-06-22T00:57:19;19.50;71.90
42683;DHT22;28293;50.930;3.464;2023-06-22T00:59:46;19.50;72.40
42683;DHT22;28293;50.930;3.464;2023-06-22T01:02:13;19.50;72.20
42683;DHT22;28293;50.930;3.464;2023-06-22T01:04:39;19.40;72.60
42683;DHT22;28293;50.930;3.464;2023-06-22T01:10:07;19.10;72.70
42683;DHT22;28293;50.930;3.464;2023-06-22T01:12:37;19.10;72.90
42683;DHT22;28293;50.930;3.464;2023-06-22T01:15:37;19.10;72.80
42683;DHT22;28293;50.930;3.464;2023-06-22T01:18:05;19.10;72.70
42683;DHT22;28293;50.930;3.464;2023-06-22T01:20:34;19.00;72.80
42683;DHT22;28293;50.930;3.464;2023-06-22T01:26:14;18.90;73.30
42683;DHT22;28293;50.930;3.464;2023-06-22T01:28:54;18.80;73.70
42683;DHT22;28293;50.930;3.464;2023-06-22T01:31:25;18.70;74.00
42683;DHT22;28293;50.930;3.464;2023-06-22T01:33:57;18.80;74.00
42683;DHT22;28293;50.930;3.464;2023-06-22T01:36:24;18.80;74.40
42683;DHT22;28293;50.930;3.464;2023-06-22T01:38:52;18.80;74.20
42683;DHT22;28293;50.930;3.464;2023-06-22T01:41:19;18.80;74.40
42683;DHT22;28293;50.930;3.464;2023-06-22T01:43:46;18.80;74.40
42683;DHT22;28293;50.930;3.464;2023-06-22T01:46:12;18.80;74.60
42683;DHT22;28293;50.930;3.464;2023-06-22T01:48:44;18.70;74.80
42683;DHT22;28293;50.930;3.464;2023-06-22T01:51:10;18.70;75.20
42683;DHT22;28293;50.930;3.464;2023-06-22T01:53:36;18.70;75.00
42683;DHT22;28293;50.930;3.464;2023-06-22T01:56:02;18.60;75.40
42683;DHT22;28293;50.930;3.464;2023-06-22T01:58:30;18.70;75.40
42683;DHT22;28293;50.930;3.464;2023-06-22T02:01:10;18.70;75.50
42683;DHT22;28293;50.930;3.464;2023-06-22T02:03:43;18.70;75.70
42683;DHT22;28293;50.930;3.464;2023-06-22T02:06:20;18.70;75.70
42683;DHT22;28293;50.930;3.464;2023-06-22T02:08:51;18.60;75.60
42683;DHT22;28293;50.930;3.464;2023-06-22T02:11:18;18.60;75.60
42683;DHT22;28293;50.930;3.464;2023-06-22T02:13:46;18.60;75.90
42683;DHT22;28293;50.930;3.464;2023-06-22T02:16:12;18.50;76.20
42683;DHT22;28293;50.930;3.464;2023-06-22T02:18:38;18.40;76.20
42683;DHT22;28293;50.930;3.464;2023-06-22T02:21:06;18.40;76.50
42683;DHT22;28293;50.930;3.464;2023-06-22T02:23:32;18.40;76.80
42683;DHT22;28293;50.930;3.464;2023-06-22T02:26:02;18.40;76.90
42683;DHT22;28293;50.930;3.464;2023-06-22T02:28:28;18.40;77.30
42683;DHT22;28293;50.930;3.464;2023-06-22T02:30:53;18.40;77.10
42683;DHT22;28293;50.930;3.464;2023-06-22T02:33:19;18.40;77.10
42683;DHT22;28293;50.930;3.464;2023-06-22T02:35:45;18.40;77.30
42683;DHT22;28293;50.930;3.464;2023-06-22T02:38:13;18.40;77.40
42683;DHT22;28293;50.930;3.464;2023-06-22T02:40:39;18.30;77.60
42683;DHT22;28293;50.930;3.464;2023-06-22T02:43:05;18.20;77.90
42683;DHT22;28293;50.930;3.464;2023-06-22T02:45:31;18.20;77.90
42683;DHT22;28293;50.930;3.464;2023-06-22T02:47:56;18.10;78.20
42683;DHT22;28293;50.930;3.464;2023-06-22T02:50:22;18.10;78.70
42683;DHT22;28293;50.930;3.464;2023-06-22T02:52:48;18.00;78.90
42683;DHT22;28293;50.930;3.464;2023-06-22T02:55:14;18.00;79.10
42683;DHT22;28293;50.930;3.464;2023-06-22T02:57:39;18.00;79.40
42683;DHT22;28293;50.930;3.464;2023-06-22T03:00:09;18.00;79.20
42683;DHT22;28293;50.930;3.464;2023-06-22T03:02:45;18.00;79.00
42683;DHT22;28293;50.930;3.464;2023-06-22T03:05:12;18.10;78.90
42683;DHT22;28293;50.930;3.464;2023-06-22T03:07:42;18.10;78.90
42683;DHT22;28293;50.930;3.464;2023-06-22T03:10:09;18.10;78.60
42683;DHT22;28293;50.930;3.464;2023-06-22T03:12:36;18.00;78.40
42683;DHT22;28293;50.930;3.464;2023-06-22T03:15:07;17.90;78.70
42683;DHT22;28293;50.930;3.464;2023-06-22T03:17:34;17.80;78.60
42683;DHT22;28293;50.930;3.464;2023-06-22T03:20:01;17.90;78.60
42683;DHT22;28293;50.930;3.464;2023-06-22T03:22:27;17.90;78.40
42683;DHT22;28293;50.930;3.464;2023-06-22T03:24:52;17.80;78.40
42683;DHT22;28293;50.930;3.464;2023-06-22T03:27:18;17.90;78.90
42683;DHT22;28293;50.930;3.464;2023-06-22T03:29:44;17.90;78.40
42683;DHT22;28293;50.930;3.464;2023-06-22T03:32:10;17.80;78.30
42683;DHT22;28293;50.930;3.464;2023-06-22T03:34:35;17.80;78.10
42683;DHT22;28293;50.930;3.464;2023-06-22T03:37:01;18.00;77.90
42683;DHT22;28293;50.930;3.464;2023-06-22T03:39:28;18.10;77.80
42683;DHT22;28293;50.930;3.464;2023-06-22T03:41:54;18.10;76.90
42683;DHT22;28293;50.930;3.464;2023-06-22T03:44:19;18.10;76.50
42683;DHT22;28293;50.930;3.464;2023-06-22T03:46:45;18.10;76.40
42683;DHT22;28293;50.930;3.464;2023-06-22T03:49:11;18.10;76.10
42683;DHT22;28293;50.930;3.464;2023-06-22T03:51:36;18.10;76.40
42683;DHT22;28293;50.930;3.464;2023-06-22T03:54:02;18.10;76.60
42683;DHT22;28293;50.930;3.464;2023-06-22T03:56:28;18.20;75.90
42683;DHT22;28293;50.930;3.464;2023-06-22T03:58:53;18.20;75.80
42683;DHT22;28293;50.930;3.464;2023-06-22T04:01:19;18.30;75.40
42683;DHT22;28293;50.930;3.464;2023-06-22T04:03:44;18.40;75.70
42683;DHT22;28293;50.930;3.464;2023-06-22T04:06:13;18.50;75.80
42683;DHT22;28293;50.930;3.464;2023-06-22T04:08:39;18.60;75.50
42683;DHT22;28293;50.930;3.464;2023-06-22T04:11:04;18.60;75.20
42683;DHT22;28293;50.930;3.464;2023-06-22T04:13:30;18.60;75.20
42683;DHT22;28293;50.930;3.464;2023-06-22T04:15:56;18.60;74.50
42683;DHT22;28293;50.930;3.464;2023-06-22T04:18:21;18.60;74.90
42683;DHT22;28293;50.930;3.464;2023-06-22T04:20:47;18.50;75.10
42683;DHT22;28293;50.930;3.464;2023-06-22T04:23:13;18.60;75.00
42683;DHT22;28293;50.930;3.464;2023-06-22T04:25:39;18.60;75.10
42683;DHT22;28293;50.930;3.464;2023-06-22T04:28:05;18.70;75.10
42683;DHT22;28293;50.930;3.464;2023-06-22T04:30:32;18.70;74.50
42683;DHT22;28293;50.930;3.464;2023-06-22T04:32:58;18.60;74.40
42683;DHT22;28293;50.930;3.464;2023-06-22T04:35:25;18.70;74.90
42683;DHT22;28293;50.930;3.464;2023-06-22T04:37:50;18.80;74.80
42683;DHT22;28293;50.930;3.464;2023-06-22T04:40:21;18.80;74.60
42683;DHT22;28293;50.930;3.464;2023-06-22T04:42:47;18.70;75.00
42683;DHT22;28293;50.930;3.464;2023-06-22T04:45:17;18.90;75.00
42683;DHT22;28293;50.930;3.464;2023-06-22T04:47:43;19.00;74.40
42683;DHT22;28293;50.930;3.464;2023-06-22T04:50:11;19.10;74.40
42683;DHT22;28293;50.930;3.464;2023-06-22T04:52:37;19.10;74.10
42683;DHT22;28293;50.930;3.464;2023-06-22T04:55:03;19.20;74.10
42683;DHT22;28293;50.930;3.464;2023-06-22T04:57:29;19.30;74.00
42683;DHT22;28293;50.930;3.464;2023-06-22T05:00:01;19.30;73.50
42683;DHT22;28293;50.930;3.464;2023-06-22T05:02:39;19.50;73.50
42683;DHT22;28293;50.930;3.464;2023-06-22T05:05:05;19.50;74.00
42683;DHT22;28293;50.930;3.464;2023-06-22T05:07:36;19.60;74.20
42683;DHT22;28293;50.930;3.464;2023-06-22T05:10:02;20.20;72.50
42683;DHT22;28293;50.930;3.464;2023-06-22T05:12:29;21.20;70.40
42683;DHT22;28293;50.930;3.464;2023-06-22T05:14:55;22.20;67.20
42683;DHT22;28293;50.930;3.464;2023-06-22T05:17:21;23.00;63.80
42683;DHT22;28293;50.930;3.464;2023-06-22T05:19:46;23.40;63.00
42683;DHT22;28293;50.930;3.464;2023-06-22T05:22:15;23.40;62.10
42683;DHT22;28293;50.930;3.464;2023-06-22T05:24:42;23.30;62.50
42683;DHT22;28293;50.930;3.464;2023-06-22T05:27:08;22.70;64.10
42683;DHT22;28293;50.930;3.464;2023-06-22T05:29:34;22.30;66.10
42683;DHT22;28293;50.930;3.464;2023-06-22T05:32:00;21.90;67.80
42683;DHT22;28293;50.930;3.464;2023-06-22T05:34:26;21.50;68.80
42683;DHT22;28293;50.930;3.464;2023-06-22T05:36:52;21.30;70.00
42683;DHT22;28293;50.930;3.464;2023-06-22T05:39:17;20.80;71.40
42683;DHT22;28293;50.930;3.464;2023-06-22T05:41:44;20.70;72.60
42683;DHT22;28293;50.930;3.464;2023-06-22T05:44:10;20.60;73.20
42683;DHT22;28293;50.930;3.464;2023-06-22T05:46:36;20.40;74.20
42683;DHT22;28293;50.930;3.464;2023-06-22T05:49:02;20.60;73.90
42683;DHT22;28293;50.930;3.464;2023-06-22T05:51:28;20.70;73.90
42683;DHT22;28293;50.930;3.464;2023-06-22T05:53:53;20.90;73.40
42683;DHT22;28293;50.930;3.464;2023-06-22T05:56:20;21.00;73.00
42683;DHT22;28293;50.930;3.464;2023-06-22T05:58:47;20.90;73.00
42683;DHT22;28293;50.930;3.464;2023-06-22T06:01:13;20.80;74.10
42683;DHT22;28293;50.930;3.464;2023-06-22T06:03:40;20.80;73.80
42683;DHT22;28293;50.930;3.464;2023-06-22T06:06:09;20.80;74.00
42683;DHT22;28293;50.930;3.464;2023-06-22T06:08:37;20.70;74.60
42683;DHT22;28293;50.930;3.464;2023-06-22T06:11:02;20.70;74.70
42683;DHT22;28293;50.930;3.464;2023-06-22T06:13:28;20.60;75.10
42683;DHT22;28293;50.930;3.464;2023-06-22T06:15:54;20.70;75.40
42683;DHT22;28293;50.930;3.464;2023-06-22T06:18:22;20.90;75.30
42683;DHT22;28293;50.930;3.464;2023-06-22T06:20:48;20.70;75.10
42683;DHT22;28293;50.930;3.464;2023-06-22T06:23:14;20.70;75.30
42683;DHT22;28293;50.930;3.464;2023-06-22T06:25:40;20.80;75.30
42683;DHT22;28293;50.930;3.464;2023-06-22T06:28:05;20.90;75.40
42683;DHT22;28293;50.930;3.464;2023-06-22T06:30:31;21.00;74.70
42683;DHT22;28293;50.930;3.464;2023-06-22T06:32:57;21.10;74.10
42683;DHT22;28293;50.930;3.464;2023-06-22T06:35:23;21.10;74.20
42683;DHT22;28293;50.930;3.464;2023-06-22T06:37:50;21.10;74.60
42683;DHT22;28293;50.930;3.464;2023-06-22T06:40:17;21.10;74.30
42683;DHT22;28293;50.930;3.464;2023-06-22T06:42:47;21.20;74.40
42683;DHT22;28293;50.930;3.464;2023-06-22T06:45:18;21.20;74.30
42683;DHT22;28293;50.930;3.464;2023-06-22T06:47:45;21.30;74.60
42683;DHT22;28293;50.930;3.464;2023-06-22T06:50:11;21.50;73.70
42683;DHT22;28293;50.930;3.464;2023-06-22T06:52:38;21.60;73.00
42683;DHT22;28293;50.930;3.464;2023-06-22T06:55:04;21.70;73.10
42683;DHT22;28293;50.930;3.464;2023-06-22T06:57:33;21.90;72.60
42683;DHT22;28293;50.930;3.464;2023-06-22T06:59:59;22.10;72.10
42683;DHT22;28293;50.930;3.464;2023-06-22T07:02:26;22.20;71.70
42683;DHT22;28293;50.930;3.464;2023-06-22T07:04:53;22.30;71.60
42683;DHT22;28293;50.930;3.464;2023-06-22T07:07:22;22.50;71.70
42683;DHT22;28293;50.930;3.464;2023-06-22T07:09:48;22.80;70.60
42683;DHT22;28293;50.930;3.464;2023-06-22T07:12:14;22.80;69.70
42683;DHT22;28293;50.930;3.464;2023-06-22T07:14:40;22.90;69.60
42683;DHT22;28293;50.930;3.464;2023-06-22T07:17:06;23.00;69.20
42683;DHT22;28293;50.930;3.464;2023-06-22T07:19:32;22.90;69.60
42683;DHT22;28293;50.930;3.464;2023-06-22T07:21:58;22.90;69.90
42683;DHT22;28293;50.930;3.464;2023-06-22T07:24:24;22.90;70.10
42683;DHT22;28293;50.930;3.464;2023-06-22T07:26:51;22.90;69.70
42683;DHT22;28293;50.930;3.464;2023-06-22T07:29:17;23.00;69.80
42683;DHT22;28293;50.930;3.464;2023-06-22T07:31:43;23.10;69.30
42683;DHT22;28293;50.930;3.464;2023-06-22T07:34:09;23.20;69.10
42683;DHT22;28293;50.930;3.464;2023-06-22T07:36:35;23.30;69.00
42683;DHT22;28293;50.930;3.464;2023-06-22T07:39:02;23.30;69.30
42683;DHT22;28293;50.930;3.464;2023-06-22T07:41:28;23.30;68.80
42683;DHT22;28293;50.930;3.464;2023-06-22T07:43:54;23.30;69.50
42683;DHT22;28293;50.930;3.464;2023-06-22T07:46:19;23.30;68.70
42683;DHT22;28293;50.930;3.464;2023-06-22T07:48:45;23.20;69.20
42683;DHT22;28293;50.930;3.464;2023-06-22T07:51:11;23.30;69.20
42683;DHT22;28293;50.930;3.464;2023-06-22T07:53:44;23.20;69.00
42683;DHT22;28293;50.930;3.464;2023-06-22T07:56:13;23.30;69.50
42683;DHT22;28293;50.930;3.464;2023-06-22T07:58:39;23.30;69.40
42683;DHT22;28293;50.930;3.464;2023-06-22T08:01:05;23.40;69.00
42683;DHT22;28293;50.930;3.464;2023-06-22T08:03:31;23.30;69.00
42683;DHT22;28293;50.930;3.464;2023-06-22T08:05:57;23.20;69.70
42683;DHT22;28293;50.930;3.464;2023-06-22T08:08:23;23.20;69.60
42683;DHT22;28293;50.930;3.464;2023-06-22T08:10:49;23.20;70.00
42683;DHT22;28293;50.930;3.464;2023-06-22T08:13:15;23.30;69.70
42683;DHT22;28293;50.930;3.464;2023-06-22T08:15:40;23.30;69.70
42683;DHT22;28293;50.930;3.464;2023-06-22T08:18:06;23.20;69.90
42683;DHT22;28293;50.930;3.464;2023-06-22T08:20:32;23.10;70.00
42683;DHT22;28293;50.930;3.464;2023-06-22T08:22:58;23.10;70.00
42683;DHT22;28293;50.930;3.464;2023-06-22T08:25:26;23.30;70.40
42683;DHT22;28293;50.930;3.464;2023-06-22T08:27:51;23.40;70.10
42683;DHT22;28293;50.930;3.464;2023-06-22T08:30:17;23.40;69.90
42683;DHT22;28293;50.930;3.464;2023-06-22T08:32:44;23.30;70.30
42683;DHT22;28293;50.930;3.464;2023-06-22T08:35:10;23.40;69.80
42683;DHT22;28293;50.930;3.464;2023-06-22T08:37:36;23.40;69.70
42683;DHT22;28293;50.930;3.464;2023-06-22T08:40:04;23.30;69.50
42683;DHT22;28293;50.930;3.464;2023-06-22T08:42:31;23.10;70.10
42683;DHT22;28293;50.930;3.464;2023-06-22T08:44:57;23.20;69.60
42683;DHT22;28293;50.930;3.464;2023-06-22T08:47:22;23.20;69.90
42683;DHT22;28293;50.930;3.464;2023-06-22T08:49:49;23.20;70.00
42683;DHT22;28293;50.930;3.464;2023-06-22T08:52:14;23.10;70.30
42683;DHT22;28293;50.930;3.464;2023-06-22T08:54:40;23.20;70.40
42683;DHT22;28293;50.930;3.464;2023-06-22T08:57:06;23.20;70.20
42683;DHT22;28293;50.930;3.464;2023-06-22T08:59:32;23.30;70.30
42683;DHT22;28293;50.930;3.464;2023-06-22T09:01:57;23.30;70.30
42683;DHT22;28293;50.930;3.464;2023-06-22T09:04:24;23.40;70.30
42683;DHT22;28293;50.930;3.464;2023-06-22T09:06:50;23.30;69.70
42683;DHT22;28293;50.930;3.464;2023-06-22T09:09:17;23.20;70.20
42683;DHT22;28293;50.930;3.464;2023-06-22T09:11:44;23.20;70.40
42683;DHT22;28293;50.930;3.464;2023-06-22T09:14:10;23.20;70.80
42683;DHT22;28293;50.930;3.464;2023-06-22T09:16:36;23.20;70.40
42683;DHT22;28293;50.930;3.464;2023-06-22T09:19:02;23.10;70.10
42683;DHT22;28293;50.930;3.464;2023-06-22T09:21:28;23.10;69.80
42683;DHT22;28293;50.930;3.464;2023-06-22T09:23:54;23.10;69.30
42683;DHT22;28293;50.930;3.464;2023-06-22T09:26:20;23.10;68.70
42683;DHT22;28293;50.930;3.464;2023-06-22T09:28:46;23.00;68.50
42683;DHT22;28293;50.930;3.464;2023-06-22T09:31:12;22.90;68.20
42683;DHT22;28293;50.930;3.464;2023-06-22T09:33:39;23.00;68.50
42683;DHT22;28293;50.930;3.464;2023-06-22T09:36:08;23.00;68.10
42683;DHT22;28293;50.930;3.464;2023-06-22T09:38:38;23.00;68.20
42683;DHT22;28293;50.930;3.464;2023-06-22T09:41:04;22.90;68.60
42683;DHT22;28293;50.930;3.464;2023-06-22T09:43:32;23.00;68.90
42683;DHT22;28293;50.930;3.464;2023-06-22T09:46:00;23.00;69.60
42683;DHT22;28293;50.930;3.464;2023-06-22T09:48:27;23.10;69.90
42683;DHT22;28293;50.930;3.464;2023-06-22T09:50:54;23.10;69.10
42683;DHT22;28293;50.930;3.464;2023-06-22T09:53:19;23.10;69.80
42683;DHT22;28293;50.930;3.464;2023-06-22T09:55:45;23.00;69.80
42683;DHT22;28293;50.930;3.464;2023-06-22T09:58:11;23.00;69.90
42683;DHT22;28293;50.930;3.464;2023-06-22T10:00:36;23.00;69.80
42683;DHT22;28293;50.930;3.464;2023-06-22T10:03:02;22.90;70.10
42683;DHT22;28293;50.930;3.464;2023-06-22T10:05:27;23.00;70.10
42683;DHT22;28293;50.930;3.464;2023-06-22T10:07:53;22.90;70.00
42683;DHT22;28293;50.930;3.464;2023-06-22T10:10:19;23.00;70.50
42683;DHT22;28293;50.930;3.464;2023-06-22T10:12:54;23.00;70.60
42683;DHT22;28293;50.930;3.464;2023-06-22T10:15:20;23.00;70.40
42683;DHT22;28293;50.930;3.464;2023-06-22T10:17:47;23.00;70.00
42683;DHT22;28293;50.930;3.464;2023-06-22T10:20:13;23.10;70.50
42683;DHT22;28293;50.930;3.464;2023-06-22T10:22:40;22.90;70.20
42683;DHT22;28293;50.930;3.464;2023-06-22T10:25:06;22.80;70.50
42683;DHT22;28293;50.930;3.464;2023-06-22T10:27:32;22.80;71.00
42683;DHT22;28293;50.930;3.464;2023-06-22T10:29:58;22.60;71.30
42683;DHT22;28293;50.930;3.464;2023-06-22T10:32:24;22.70;71.50
42683;DHT22;28293;50.930;3.464;2023-06-22T10:34:49;22.70;71.70
42683;DHT22;28293;50.930;3.464;2023-06-22T10:37:15;22.70;71.80
42683;DHT22;28293;50.930;3.464;2023-06-22T10:39:40;22.60;72.10
42683;DHT22;28293;50.930;3.464;2023-06-22T10:42:06;22.70;72.60
42683;DHT22;28293;50.930;3.464;2023-06-22T10:44:32;22.70;73.10
42683;DHT22;28293;50.930;3.464;2023-06-22T10:46:58;22.70;73.40
42683;DHT22;28293;50.930;3.464;2023-06-22T10:49:26;22.70;74.30
42683;DHT22;28293;50.930;3.464;2023-06-22T10:51:53;22.60;75.00
42683;DHT22;28293;50.930;3.464;2023-06-22T10:54:19;22.60;75.80
42683;DHT22;28293;50.930;3.464;2023-06-22T10:56:44;22.50;76.50
42683;DHT22;28293;50.930;3.464;2023-06-22T10:59:10;22.20;72.30
42683;DHT22;28293;50.930;3.464;2023-06-22T11:01:36;22.20;72.40
42683;DHT22;28293;50.930;3.464;2023-06-22T11:04:02;22.30;73.10
42683;DHT22;28293;50.930;3.464;2023-06-22T11:06:28;22.10;73.30
42683;DHT22;28293;50.930;3.464;2023-06-22T11:08:54;22.00;73.30
42683;DHT22;28293;50.930;3.464;2023-06-22T11:11:19;22.00;74.80
42683;DHT22;28293;50.930;3.464;2023-06-22T11:13:45;22.10;74.90
42683;DHT22;28293;50.930;3.464;2023-06-22T11:16:11;22.00;73.30
42683;DHT22;28293;50.930;3.464;2023-06-22T11:18:36;21.80;73.90
42683;DHT22;28293;50.930;3.464;2023-06-22T11:21:02;21.80;73.70
42683;DHT22;28293;50.930;3.464;2023-06-22T11:23:28;21.80;74.20
42683;DHT22;28293;50.930;3.464;2023-06-22T11:25:56;21.90;74.40
42683;DHT22;28293;50.930;3.464;2023-06-22T11:28:22;21.80;72.10
42683;DHT22;28293;50.930;3.464;2023-06-22T11:30:48;21.80;72.70
42683;DHT22;28293;50.930;3.464;2023-06-22T11:33:13;21.80;72.40
42683;DHT22;28293;50.930;3.464;2023-06-22T11:35:39;21.80;71.80
42683;DHT22;28293;50.930;3.464;2023-06-22T11:38:05;21.80;72.20
42683;DHT22;28293;50.930;3.464;2023-06-22T11:40:30;21.80;72.00
42683;DHT22;28293;50.930;3.464;2023-06-22T11:42:56;21.70;71.10
42683;DHT22;28293;50.930;3.464;2023-06-22T11:45:22;21.70;71.30
42683;DHT22;28293;50.930;3.464;2023-06-22T11:47:48;21.70;69.10
42683;DHT22;28293;50.930;3.464;2023-06-22T11:50:14;21.60;68.60
42683;DHT22;28293;50.930;3.464;2023-06-22T11:52:39;21.60;68.30
42683;DHT22;28293;50.930;3.464;2023-06-22T11:55:06;21.60;68.40
42683;DHT22;28293;50.930;3.464;2023-06-22T11:57:39;21.60;69.40
42683;DHT22;28293;50.930;3.464;2023-06-22T12:00:17;21.60;69.90
42683;DHT22;28293;50.930;3.464;2023-06-22T12:02:44;21.60;70.80
42683;DHT22;28293;50.930;3.464;2023-06-22T12:05:10;21.50;71.20
42683;DHT22;28293;50.930;3.464;2023-06-22T12:07:36;21.60;72.00
42683;DHT22;28293;50.930;3.464;2023-06-22T12:10:03;21.50;72.40
42683;DHT22;28293;50.930;3.464;2023-06-22T12:12:29;21.50;72.80
42683;DHT22;28293;50.930;3.464;2023-06-22T12:14:54;21.40;74.20
42683;DHT22;28293;50.930;3.464;2023-06-22T12:17:20;21.50;74.50
42683;DHT22;28293;50.930;3.464;2023-06-22T12:19:46;21.60;74.50
42683;DHT22;28293;50.930;3.464;2023-06-22T12:22:12;21.60;74.20
42683;DHT22;28293;50.930;3.464;2023-06-22T12:24:38;21.90;74.70
42683;DHT22;28293;50.930;3.464;2023-06-22T12:27:04;22.10;73.70
42683;DHT22;28293;50.930;3.464;2023-06-22T12:29:29;22.10;74.70
42683;DHT22;28293;50.930;3.464;2023-06-22T12:31:55;22.10;74.40
42683;DHT22;28293;50.930;3.464;2023-06-22T12:34:21;22.20;74.40
42683;DHT22;28293;50.930;3.464;2023-06-22T12:36:46;22.30;74.00
42683;DHT22;28293;50.930;3.464;2023-06-22T12:39:15;22.40;74.30
42683;DHT22;28293;50.930;3.464;2023-06-22T12:41:40;22.30;73.40
42683;DHT22;28293;50.930;3.464;2023-06-22T12:44:06;22.40;73.60
42683;DHT22;28293;50.930;3.464;2023-06-22T12:46:32;22.30;73.80
42683;DHT22;28293;50.930;3.464;2023-06-22T12:49:03;22.40;72.90
42683;DHT22;28293;50.930;3.464;2023-06-22T12:51:29;22.60;72.10
42683;DHT22;28293;50.930;3.464;2023-06-22T12:53:55;22.60;72.90
42683;DHT22;28293;50.930;3.464;2023-06-22T12:56:21;22.60;72.20
42683;DHT22;28293;50.930;3.464;2023-06-22T12:58:46;22.70;72.50
42683;DHT22;28293;50.930;3.464;2023-06-22T13:01:12;22.70;72.30
42683;DHT22;28293;50.930;3.464;2023-06-22T13:03:38;22.80;71.00
42683;DHT22;28293;50.930;3.464;2023-06-22T13:06:04;22.90;71.90
42683;DHT22;28293;50.930;3.464;2023-06-22T13:08:30;22.80;71.30
42683;DHT22;28293;50.930;3.464;2023-06-22T13:10:56;22.80;71.80
42683;DHT22;28293;50.930;3.464;2023-06-22T13:13:23;22.60;71.50
42683;DHT22;28293;50.930;3.464;2023-06-22T13:15:59;22.80;72.50
42683;DHT22;28293;50.930;3.464;2023-06-22T13:18:25;22.90;71.20
42683;DHT22;28293;50.930;3.464;2023-06-22T13:20:51;23.00;71.50
42683;DHT22;28293;50.930;3.464;2023-06-22T13:23:22;23.10;70.70
42683;DHT22;28293;50.930;3.464;2023-06-22T13:25:48;23.20;70.20
42683;DHT22;28293;50.930;3.464;2023-06-22T13:28:14;23.20;69.00
42683;DHT22;28293;50.930;3.464;2023-06-22T13:30:42;23.40;68.50
42683;DHT22;28293;50.930;3.464;2023-06-22T13:33:11;23.40;68.10
42683;DHT22;28293;50.930;3.464;2023-06-22T13:35:37;23.60;68.60
42683;DHT22;28293;50.930;3.464;2023-06-22T13:38:03;23.60;67.80
42683;DHT22;28293;50.930;3.464;2023-06-22T13:40:29;23.80;67.60
42683;DHT22;28293;50.930;3.464;2023-06-22T13:42:56;24.10;66.80
42683;DHT22;28293;50.930;3.464;2023-06-22T13:45:22;24.20;66.90
42683;DHT22;28293;50.930;3.464;2023-06-22T13:47:48;24.30;66.90
42683;DHT22;28293;50.930;3.464;2023-06-22T13:50:14;24.40;65.80
42683;DHT22;28293;50.930;3.464;2023-06-22T13:52:40;24.20;66.70
42683;DHT22;28293;50.930;3.464;2023-06-22T13:55:05;24.40;67.30
42683;DHT22;28293;50.930;3.464;2023-06-22T13:57:32;24.50;68.60
42683;DHT22;28293;50.930;3.464;2023-06-22T13:59:59;24.30;69.40
42683;DHT22;28293;50.930;3.464;2023-06-22T14:02:26;24.00;68.60
42683;DHT22;28293;50.930;3.464;2023-06-22T14:04:53;24.10;69.70
42683;DHT22;28293;50.930;3.464;2023-06-22T14:07:19;24.30;68.80
42683;DHT22;28293;50.930;3.464;2023-06-22T14:09:47;24.50;67.80
42683;DHT22;28293;50.930;3.464;2023-06-22T14:12:13;24.40;64.20
42683;DHT22;28293;50.930;3.464;2023-06-22T14:14:39;24.30;65.40
42683;DHT22;28293;50.930;3.464;2023-06-22T14:17:05;24.20;66.40
42683;DHT22;28293;50.930;3.464;2023-06-22T14:19:30;24.30;66.80
42683;DHT22;28293;50.930;3.464;2023-06-22T14:21:56;24.40;66.80
42683;DHT22;28293;50.930;3.464;2023-06-22T14:24:23;24.60;65.90
42683;DHT22;28293;50.930;3.464;2023-06-22T14:26:49;24.80;66.00
42683;DHT22;28293;50.930;3.464;2023-06-22T14:29:14;24.80;65.90
42683;DHT22;28293;50.930;3.464;2023-06-22T14:31:40;25.10;64.80
42683;DHT22;28293;50.930;3.464;2023-06-22T14:34:06;25.10;64.40
42683;DHT22;28293;50.930;3.464;2023-06-22T14:36:32;24.90;64.90
42683;DHT22;28293;50.930;3.464;2023-06-22T14:38:57;24.60;65.60
42683;DHT22;28293;50.930;3.464;2023-06-22T14:41:23;24.40;65.10
42683;DHT22;28293;50.930;3.464;2023-06-22T14:43:50;24.10;65.70
42683;DHT22;28293;50.930;3.464;2023-06-22T14:46:17;24.10;66.60
42683;DHT22;28293;50.930;3.464;2023-06-22T14:48:43;23.60;66.70
42683;DHT22;28293;50.930;3.464;2023-06-22T14:51:10;23.40;67.30
42683;DHT22;28293;50.930;3.464;2023-06-22T14:53:36;23.20;67.90
42683;DHT22;28293;50.930;3.464;2023-06-22T14:56:02;23.10;68.50
42683;DHT22;28293;50.930;3.464;2023-06-22T14:58:31;23.00;68.50
42683;DHT22;28293;50.930;3.464;2023-06-22T15:01:04;23.10;68.90
42683;DHT22;28293;50.930;3.464;2023-06-22T15:03:33;23.00;68.80
42683;DHT22;28293;50.930;3.464;2023-06-22T15:06:02;23.00;69.20
42683;DHT22;28293;50.930;3.464;2023-06-22T15:08:28;23.00;69.30
42683;DHT22;28293;50.930;3.464;2023-06-22T15:10:54;22.90;69.80
42683;DHT22;28293;50.930;3.464;2023-06-22T15:13:20;22.90;69.80
42683;DHT22;28293;50.930;3.464;2023-06-22T15:15:47;22.80;69.60
42683;DHT22;28293;50.930;3.464;2023-06-22T15:18:14;22.80;70.50
42683;DHT22;28293;50.930;3.464;2023-06-22T15:20:40;23.00;70.10
42683;DHT22;28293;50.930;3.464;2023-06-22T15:23:07;23.00;69.70
42683;DHT22;28293;50.930;3.464;2023-06-22T15:25:34;23.00;70.60
42683;DHT22;28293;50.930;3.464;2023-06-22T15:27:59;23.00;70.80
42683;DHT22;28293;50.930;3.464;2023-06-22T15:30:25;22.90;71.40
42683;DHT22;28293;50.930;3.464;2023-06-22T15:32:51;22.80;71.80